Flight Track Log - Related Links

Times and Time Zones

All times are in EST time to prevent confusion due to time zone crossing. See the ASQ5685 flight status page for this flight to view local times or setup timezone preferences in your user account.

Time Position Orientation Groundspeed Altitude Reporting Facility
EST Latitude Longitude Course Direction KTS MPH feet Rate Location/Type
Fri 10:26:30 AM 33.6119 -84.4928 73° East 369 425 3,100  Level Atlanta Center
Fri 10:27:30 AM 33.5867 -84.5525 243° Southwest 240 276 4,700 1,850 Climbing Atlanta Center
Fri 10:28:00 AM 33.8788 -84.1402 54° Northeast  Level Estimated
Fri 10:28:30 AM 33.5300 -84.5894 209° Southwest 217 250 6,800  Level Atlanta Center
Fri 10:29:00 AM 33.9593 -84.0439 48° Northeast  Level Estimated
Fri 10:29:30 AM 33.4697 -84.5194 136° Southeast 289 333 8,100  Level Atlanta Center
Fri 10:30:00 AM 34.0398 -83.9474 53° Northeast  Level Estimated
Fri 10:30:30 AM 33.4597 -84.4297 98° East 325 374 10,100  Level Atlanta Center
Fri 10:31:00 AM 34.0726 -83.8164 73° East  Level FlightAware Approximate
Fri 10:31:30 AM 33.4892 -84.3128 73° East 345 397 10,900  Level Atlanta Center
Fri 10:32:30 AM 33.5667 -84.2133 47° Northeast 364 419 12,100 1,100 Climbing Atlanta Center
Fri 10:33:30 AM 33.6439 -84.1061 49° Northeast 406 467 13,100 1,000 Climbing Atlanta Center
Fri 10:34:30 AM 33.7253 -83.9989 48° Northeast 424 488 14,100 1,000 Climbing Atlanta Center
Fri 10:35:30 AM 33.8047 -83.8914 48° Northeast 432 497 15,100 1,000 Climbing Atlanta Center
Fri 10:36:30 AM 33.8858 -83.7786 49° Northeast 440 506 16,100 1,000 Climbing Atlanta Center
Fri 10:37:30 AM 33.9647 -83.6606 51° Northeast 440 506 17,100 1,000 Climbing Atlanta Center
Fri 10:38:30 AM 34.0375 -83.5450 53° Northeast 440 506 18,100 1,000 Climbing Atlanta Center
Fri 10:39:30 AM 34.1142 -83.4242 53° Northeast 440 506 19,100 1,000 Climbing Atlanta Center
Fri 10:40:30 AM 34.1867 -83.3056 54° Northeast 440 506 20,100 1,000 Climbing Atlanta Center
Fri 10:41:30 AM 34.2650 -83.1817 53° Northeast 445 512 21,100 1,000 Climbing Atlanta Center
Fri 10:42:30 AM 34.3372 -83.0603 54° Northeast 445 512 22,100 950 Climbing Atlanta Center
Fri 10:43:30 AM 34.4053 -82.9536 52° Northeast 451 519 23,000 950 Climbing Atlanta Center
Fri 10:44:30 AM 34.4811 -82.8317 53° Northeast 451 519 24,000 900 Climbing Atlanta Center
Fri 10:45:30 AM 34.5550 -82.7097 54° Northeast 451 519 24,800 500 Climbing Atlanta Center
Fri 10:46:30 AM 34.6411 -82.5744 52° Northeast 457 526 25,000 100 Climbing Atlanta Center
Fri 10:47:30 AM 34.7128 -82.4594 53° Northeast 462 532 25,000  Level Atlanta Center
Fri 10:48:30 AM 34.7944 -82.3264 53° Northeast 472 543 25,000  Level Atlanta Center
Fri 10:49:30 AM 34.8758 -82.1856 55° Northeast 490 564 25,000  Level Atlanta Center
Fri 10:50:30 AM 34.9614 -82.0542 52° Northeast 490 564 25,000  Level Atlanta Center
Fri 10:51:30 AM 35.0428 -81.9178 54° Northeast 490 564 25,000  Level Atlanta Center
Fri 10:52:30 AM 35.1194 -81.7739 57° Northeast 495 570 25,000  Level Atlanta Center
Fri 10:53:30 AM 35.1958 -81.6242 58° Northeast 506 582 25,000  Level Atlanta Center
Fri 10:54:30 AM 35.2722 -81.4794 57° Northeast 511 588 25,000  Level Atlanta Center
Fri 10:55:30 AM 35.3483 -81.3347 57° Northeast 511 588 25,000  Level Atlanta Center
Fri 10:56:30 AM 35.4242 -81.1842 58° Northeast 511 588 25,000  Level Atlanta Center
Fri 10:57:30 AM 35.5019 -81.0336 58° Northeast 511 588 25,000  Level Atlanta Center
Fri 10:58:30 AM 35.5878 -80.8722 57° Northeast 519 597 25,000  Level Atlanta Center
Fri 10:59:30 AM 35.6631 -80.7261 58° Northeast 519 597 25,000  Level Atlanta Center
Fri 11:00:30 AM 35.7383 -80.5772 58° Northeast 514 592 25,000  Level Atlanta Center
Fri 11:01:30 AM 35.8153 -80.4306 57° Northeast 514 592 25,000  Level Atlanta Center
Fri 11:03:17 AM 35.9428 -80.1794 58° Northeast 511 588 25,000  Level Washington Center
Fri 11:04:18 AM 36.0242 -80.0197 58° Northeast 497 572 25,000  Level Washington Center
Fri 11:05:16 AM 36.1067 -79.8700 56° Northeast 503 579 25,000  Level Washington Center
Fri 11:06:16 AM 36.1892 -79.7228 55° Northeast 520 598 25,000  Level Washington Center
Fri 11:07:17 AM 36.2644 -79.5928 54° Northeast 520 598 25,000  Level Washington Center
Fri 11:08:18 AM 36.3572 -79.4350 54° Northeast 520 598 25,000  Level Washington Center
Fri 11:09:16 AM 36.4372 -79.2814 57° Northeast 514 592 25,000  Level Washington Center
Fri 11:10:16 AM 36.5122 -79.1481 55° Northeast 519 597 25,000  Level Washington Center
Fri 11:11:18 AM 36.6044 -78.9917 54° Northeast 519 597 25,000  Level Washington Center
Fri 11:12:18 AM 36.6750 -78.8525 58° Northeast 519 597 25,000  Level Washington Center
Fri 11:13:16 AM 36.7583 -78.7028 55° Northeast 519 597 25,000 -102 Level Washington Center
Fri 11:14:16 AM 36.8067 -78.5233 71° East 494 568 24,800 -645 Descending Washington Center
Fri 11:15:17 AM 36.8328 -78.3842 77° East 483 556 23,700 -1,131 Descending Washington Center
Fri 11:16:18 AM 36.8697 -78.2350 73° East 469 540 22,500 -864 Descending Washington Center
Fri 11:17:15 AM 36.9569 -78.1522 37° Northeast 420 483 22,000 -254 Descending Washington Center
Fri 11:18:16 AM 37.0772 -78.0911 22° Northeast 406 467 22,000  Level Washington Center
Fri 11:19:17 AM 37.1892 -78.0242 25° Northeast 417 480 22,000  Level Washington Center
Fri 11:20:17 AM 37.3114 -77.9578 23° Northeast 445 512 22,000  Level Washington Center
Fri 11:21:18 AM 37.4339 -77.8831 26° Northeast 464 534 22,000  Level Washington Center
Fri 11:22:18 AM 37.5497 -77.8183 24° Northeast 476 548 22,000  Level Washington Center
Fri 11:23:17 AM 37.6536 -77.7375 32° Northeast 448 516 22,000 -950 Level Washington Center
Fri 11:24:18 AM 37.7283 -77.6267 50° Northeast 422 486 20,100 -2,132 Descending Washington Center
Fri 11:25:18 AM 37.8011 -77.5208 49° Northeast 409 471 17,700 -2,390 Descending Washington Center
Fri 11:26:16 AM 37.8756 -77.4203 47° Northeast 395 455 15,400 -2,390 Descending Washington Center
Fri 11:27:16 AM 37.9722 -77.3831 17° North 365 420 13,000 -2,331 Descending Washington Center
Fri 11:28:17 AM 38.0636 -77.4142 345° North 323 372 10,700 -1,525 Descending Washington Center
Fri 11:29:18 AM 38.1508 -77.4375 348° North 318 366 9,900 -756 Descending Washington Center
Fri 11:30:16 AM 38.2358 -77.4581 349° North 312 359 9,200 -1,109 Descending Washington Center
Fri 11:31:17 AM 38.3169 -77.4681 354° North 312 359 7,700 -1,082 Descending Washington Center
Fri 11:32:18 AM 38.3942 -77.4700 359° North 293 337 7,000 -504 Descending Washington Center
Fri 11:33:16 AM 38.4631 -77.4583 North 266 306 6,700 -915 Descending Washington Center
Fri 11:34:16 AM 38.5342 -77.4442 North 254 292 5,200 -1,339 Descending Washington Center
Fri 11:35:17 AM 38.6011 -77.4433 North 248 285 4,000 -1,082 Descending Washington Center
Fri 11:36:18 AM 38.6572 -77.4419 North 226 260 3,000 -504 Descending Washington Center
Fri 11:37:16 AM 38.7072 -77.4433 359° North 195 224 3,000  Level Washington Center
Fri 11:38:16 AM 38.7553 -77.4417 North 181 208 3,000 -234 Level Washington Center
Fri 11:39:24 AM 38.8167 -77.4333 North 175 201 2,500 -639 Descending Potomac TRACON
Fri 11:40:18 AM 38.8500 -77.4333 360° North 142 163 1,700 -789 Descending Potomac TRACON
Fri 11:41:18 AM 38.9000 -77.4333 360° North 129 148 1,000 -700 Descending Potomac TRACON

Login

Don't have an account? Register now (free) for customized features, flight alerts, and more!